This is the latest recevied weather packets stored in our database for station/object KA3BQE-13. If no packets are shown the sender has not sent any weather packets the latest 10 day(s).
| Time | Temp. | Humidity | Pressure | Rain* | Wind** | Luminosity | Snow |
|---|---|---|---|---|---|---|---|
| 1777953944 | 15.56° C | 83% | 1004.3 hPa | 2.29 mm | - | 0 W/m² | - |
| 1777953641 | 14.44° C | 94% | 1004.2 hPa | 1.27 mm | - | 0 W/m² | - |
| 1777953337 | 14.44° C | 93% | 1003.9 hPa | 1.27 mm | - | 0 W/m² | - |
| 1777953034 | 14.44° C | 92% | 1004.1 hPa | 0 mm | - | 0 W/m² | - |
| 1777952730 | 14.44° C | 92% | 1004.4 hPa | 0 mm | - | 0 W/m² | - |
| 1777952427 | 14.44° C | 92% | 1004.2 hPa | 0 mm | - | 0 W/m² | - |
| 1777952124 | 14.44° C | 91% | 1004.4 hPa | 2.29 mm | - | 0 W/m² | - |
| 1777951822 | 14.44° C | 90% | 1004.9 hPa | 2.29 mm | - | 0 W/m² | - |
| 1777951520 | 14.44° C | 89% | 1004.9 hPa | 0.51 mm | - | 0 W/m² | - |
| 1777951216 | 15° C | 86% | 1005.3 hPa | 4.32 mm | - | 0 W/m² | - |
| 1777950914 | 15.56° C | 83% | 1005.4 hPa | 3.05 mm | - | 0 W/m² | - |
| 1777950610 | 16.67° C | 73% | 1005.5 hPa | 0 mm | - | 0 W/m² | - |
| 1777950306 | 17.22° C | 69% | 1005.4 hPa | 0 mm | - | 0 W/m² | - |
| 1777950001 | 17.22° C | 68% | 1005.8 hPa | 0 mm | - | 0 W/m² | - |
| 1777949699 | 17.78° C | 65% | 1005.4 hPa | 0 mm | - | 0 W/m² | - |
| 1777949399 | 18.33° C | 62% | 1005.5 hPa | 0 mm | - | 0 W/m² | - |
| 1777949094 | 18.89° C | 60% | 1005.4 hPa | 0 mm | - | 0 W/m² | - |
| 1777948791 | 19.44° C | 58% | 1005.3 hPa | 0 mm | - | 0 W/m² | - |
| 1777948488 | 20° C | 61% | 1005.2 hPa | 0 mm | - | 0 W/m² | - |
| 1777948186 | 20° C | 68% | 1004 hPa | 0 mm | - | 0 W/m² | - |
| 1777947883 | 20° C | 64% | 1003.7 hPa | 0 mm | - | 0 W/m² | - |
| 1777947580 | 20° C | 64% | 1003.4 hPa | 0 mm | - | 0 W/m² | - |
| 1777947277 | 20° C | 65% | 1003.2 hPa | 0 mm | - | 0 W/m² | - |
| 1777946972 | 19.44° C | 66% | 1003 hPa | 0 mm | - | 0 W/m² | - |
| 1777946668 | 19.44° C | 66% | 1003 hPa | 0 mm | - | 0 W/m² | - |
* Rain latest hour (hover to see other rain measurements)
** Current wind speed in m/s (hover to see current wind gust speed)